Time;durP1;ratioP1;P1;durP2;ratioP2;P2;SDS_P1;SDS_P2;PMS_P1;PMS_P2;Temp;Humidity;BMP_temperature;BMP_pressure;BME280_temperature;BME280_humidity;BME280_pressure;Samples;Min_cycle;Max_cycle;Signal;HPM_P1;HPM_P2
2022/11/29 00:01:33;;;;;;;8.50;4.77;;;;;;;-145.69;100.00;52638.47;5095779;28;20206;-80
2022/11/29 00:04:00;;;;;;;9.10;6.10;;;;;;;-145.69;100.00;52618.66;5095063;28;20186;-80
2022/11/29 00:06:30;;;;;;;10.80;6.00;;;;;;;-145.69;100.00;52636.50;5095829;28;20568;-79
2022/11/29 00:08:58;;;;;;;11.30;6.53;;;;;;;-145.69;100.00;52626.59;5095531;28;20191;-80
2022/11/29 00:14:13;;;;;;;8.87;5.47;;;;;;;-145.69;100.00;52622.63;5095145;28;20279;-80
2022/11/29 00:16:40;;;;;;;13.77;6.10;;;;;;;-145.69;100.00;52622.63;5095295;28;20198;-80
2022/11/29 00:19:07;;;;;;;9.73;5.40;;;;;;;-145.69;100.00;52640.44;5095511;28;20229;-79
2022/11/29 00:21:35;;;;;;;11.50;5.30;;;;;;;-145.69;100.00;52606.78;5095440;28;20202;-81
2022/11/29 00:24:02;;;;;;;13.57;5.53;;;;;;;-145.69;100.00;52632.53;5096047;28;20288;-81
2022/11/29 00:26:28;;;;;;;10.60;5.93;;;;;;;-145.69;100.00;52628.56;5096010;28;20198;-80
2022/11/29 00:28:55;;;;;;;12.97;6.27;;;;;;;-145.69;100.00;52622.63;5095491;28;20667;-80
2022/11/29 00:31:23;;;;;;;15.10;6.10;;;;;;;-145.69;100.00;52636.50;5095784;28;20213;-80
2022/11/29 00:33:51;;;;;;;18.00;5.93;;;;;;;-145.69;100.00;52594.91;5095569;28;20329;-80
2022/11/29 00:36:17;;;;;;;10.70;5.73;;;;;;;-145.69;100.00;52622.63;5095980;28;20196;-81
2022/11/29 00:38:45;;;;;;;15.40;5.70;;;;;;;-145.69;100.00;52610.75;5096059;28;20692;-81
2022/11/29 00:41:12;;;;;;;15.33;5.60;;;;;;;-145.69;100.00;52594.91;5096027;28;20237;-81
2022/11/29 00:43:39;;;;;;;11.20;5.70;;;;;;;-145.69;100.00;52662.22;5095177;28;20202;-80
2022/11/29 00:46:06;;;;;;;11.40;5.70;;;;;;;-145.69;100.00;52622.63;5095941;28;20209;-81
2022/11/29 00:48:32;;;;;;;10.77;5.30;;;;;;;-145.69;100.00;52634.50;5095535;28;20217;-80
2022/11/29 00:50:59;;;;;;;17.10;6.10;;;;;;;-145.69;100.00;52634.50;5093950;28;20654;-80
2022/11/29 00:53:26;;;;;;;11.63;5.43;;;;;;;-145.69;100.00;52630.53;5094754;28;20544;-80
2022/11/29 00:55:54;;;;;;;17.37;5.43;;;;;;;-145.69;100.00;52620.66;5095280;28;20206;-81
2022/11/29 00:58:21;;;;;;;10.77;5.00;;;;;;;-145.69;100.00;52642.44;5094939;28;20300;-80
2022/11/29 01:00:47;;;;;;;13.53;4.87;;;;;;;-145.69;100.00;52638.47;5095454;28;20194;-80
2022/11/29 01:03:15;;;;;;;17.00;5.57;;;;;;;-145.69;100.00;52624.59;5096312;28;20198;-80
2022/11/29 01:05:42;;;;;;;11.30;4.70;;;;;;;-145.69;100.00;52598.84;5096138;28;20204;-81
2022/11/29 01:08:09;;;;;;;10.83;3.87;;;;;;;-145.69;100.00;52610.75;5087342;28;20232;-80
2022/11/29 01:10:36;;;;;;;16.27;4.63;;;;;;;-145.69;100.00;52616.69;5094580;28;20200;-81
2022/11/29 01:13:04;;;;;;;10.67;4.03;;;;;;;-145.69;100.00;52610.75;5095214;28;20224;-80
2022/11/29 01:15:31;;;;;;;14.80;4.47;;;;;;;-145.69;100.00;52602.81;5094639;28;20209;-81
2022/11/29 01:17:58;;;;;;;12.60;4.20;;;;;;;-145.69;100.00;52632.53;5095120;28;20221;-81
2022/11/29 01:20:24;;;;;;;11.90;3.60;;;;;;;-145.69;100.00;52602.81;5094751;28;20301;-81
2022/11/29 01:22:51;;;;;;;10.80;4.20;;;;;;;-145.69;100.00;52646.41;5094761;28;20209;-81
2022/11/29 01:25:18;;;;;;;17.83;4.30;;;;;;;-145.69;100.00;52624.59;5094438;28;20194;-81
2022/11/29 01:27:45;;;;;;;15.83;4.63;;;;;;;-145.69;100.00;52608.75;5095089;28;20255;-81
2022/11/29 01:30:14;;;;;;;13.47;3.73;;;;;;;-145.69;100.00;52630.53;5094933;28;20564;-81
2022/11/29 01:32:40;;;;;;;10.67;3.60;;;;;;;-145.69;100.00;52616.69;5095050;28;20565;-81
2022/11/29 01:35:08;;;;;;;10.67;3.73;;;;;;;-145.69;100.00;52618.66;5094746;28;20228;-81
2022/11/29 01:37:34;;;;;;;18.07;4.40;;;;;;;-145.69;100.00;52624.59;5094429;28;20281;-81
2022/11/29 01:40:01;;;;;;;14.80;3.70;;;;;;;-145.69;100.00;52634.50;5096216;28;20198;-80
2022/11/29 01:42:28;;;;;;;8.80;4.07;;;;;;;-145.69;100.00;52630.53;5076723;28;20195;-80
2022/11/29 01:45:26;;;;;;;20.07;3.90;;;;;;;-145.69;100.00;52634.50;5094117;28;20194;-80
2022/11/29 01:47:57;;;;;;;21.00;4.17;;;;;;;-145.69;100.00;52614.72;5093069;28;20213;-80
2022/11/29 01:50:23;;;;;;;18.00;4.13;;;;;;;-145.69;100.00;52646.41;5093051;28;20206;-80
2022/11/29 01:52:50;;;;;;;13.33;4.10;;;;;;;-145.69;100.00;52642.44;5093825;28;20195;-81
2022/11/29 01:55:18;;;;;;;11.17;3.37;;;;;;;-145.69;100.00;52640.44;5094104;28;20289;-81
2022/11/29 01:57:44;;;;;;;16.27;4.10;;;;;;;-145.69;100.00;52638.47;5094023;28;20202;-81
2022/11/29 02:00:13;;;;;;;21.83;4.03;;;;;;;-145.69;100.00;52642.44;5094064;28;20280;-81
2022/11/29 02:02:44;;;;;;;11.67;3.73;;;;;;;-145.69;100.00;52662.22;5094012;28;20224;-81
2022/11/29 02:05:13;;;;;;;11.40;3.30;;;;;;;-145.69;100.00;52632.53;5093819;28;20209;-82
2022/11/29 02:07:40;;;;;;;8.93;3.47;;;;;;;-145.69;100.00;52646.41;5094260;28;20251;-81
2022/11/29 02:10:08;;;;;;;15.07;3.20;;;;;;;-145.69;100.00;52618.66;5093997;28;20202;-81
2022/11/29 02:12:46;;;;;;;14.83;3.63;;;;;;;-145.69;100.00;52614.72;5095634;28;20199;-81
2022/11/29 02:15:28;;;;;;;11.67;3.53;;;;;;;-145.69;100.00;52654.31;5095784;28;20728;-81
2022/11/29 02:18:08;;;;;;;11.73;3.93;;;;;;;-145.69;100.00;52638.47;5095755;28;20221;-81
2022/11/29 02:21:00;;;;;;;7.53;2.83;;;;;;;-145.69;100.00;52638.47;5094840;28;20198;-81
2022/11/29 02:23:45;;;;;;;13.47;3.23;;;;;;;-145.69;100.00;52622.63;5094725;28;20201;-82
2022/11/29 02:26:29;;;;;;;13.47;3.13;;;;;;;-145.69;100.00;52662.22;5094942;28;20327;-81
2022/11/29 02:29:18;;;;;;;19.77;3.67;;;;;;;-145.69;100.00;52654.31;5093478;28;20441;-81
2022/11/29 02:32:24;;;;;;;16.43;3.70;;;;;;;-145.69;100.00;52622.63;5093795;28;20201;-81
2022/11/29 02:35:00;;;;;;;13.60;2.90;;;;;;;-145.69;100.00;52596.88;5091530;28;20229;-81
2022/11/29 02:38:09;;;;;;;14.57;3.27;;;;;;;-145.69;100.00;52658.28;5094989;28;20197;-81
2022/11/29 02:41:00;;;;;;;10.63;2.50;;;;;;;-145.69;100.00;52646.41;5094452;28;20194;-82
2022/11/29 02:43:49;;;;;;;16.53;3.47;;;;;;;-145.69;100.00;52636.50;5074134;28;20671;-81
2022/11/29 02:46:42;;;;;;;10.33;2.83;;;;;;;-145.69;100.00;52618.66;5073091;28;20199;-80
2022/11/29 02:49:15;;;;;;;6.50;2.57;;;;;;;-145.69;100.00;52620.66;5072963;28;20202;-80
2022/11/29 02:51:49;;;;;;;12.70;2.80;;;;;;;-145.69;100.00;52650.34;5090701;28;20209;-81
2022/11/29 02:54:22;;;;;;;18.67;2.97;;;;;;;-145.69;100.00;52618.66;5093492;28;20678;-80
2022/11/29 02:56:56;;;;;;;20.03;3.13;;;;;;;-145.69;100.00;52583.00;5093060;28;20293;-80
2022/11/29 02:59:39;;;;;;;10.07;2.50;;;;;;;-145.69;100.00;52620.66;5092929;28;20221;-80
2022/11/29 03:02:17;;;;;;;8.97;2.90;;;;;;;-145.69;100.00;52638.47;5094320;28;20206;-80
2022/11/29 03:04:50;;;;;;;13.23;3.27;;;;;;;-145.69;100.00;52666.19;5096513;28;20208;-81
2022/11/29 03:07:26;;;;;;;9.13;2.50;;;;;;;-145.69;100.00;52646.41;5096418;28;20200;-80
2022/11/29 03:09:58;;;;;;;15.57;3.33;;;;;;;-145.69;100.00;52650.34;5096869;28;20198;-80
2022/11/29 03:12:31;;;;;;;13.25;3.20;;;;;;;-145.69;100.00;52622.63;5095577;28;20440;-80
2022/11/29 03:15:09;;;;;;;7.03;2.43;;;;;;;-145.69;100.00;52614.72;5096810;28;20193;-80
2022/11/29 03:17:45;;;;;;;7.23;2.27;;;;;;;-145.69;100.00;52618.66;5096582;28;20205;-80
2022/11/29 03:20:26;;;;;;;6.47;2.27;;;;;;;-145.69;100.00;52654.31;5096482;28;20655;-81
2022/11/29 03:23:08;;;;;;;5.80;2.50;;;;;;;-145.69;100.00;52630.53;5096869;28;20203;-81
2022/11/29 03:25:39;;;;;;;9.00;2.50;;;;;;;-145.69;100.00;52658.28;5096536;28;20205;-81
2022/11/29 03:28:14;;;;;;;7.90;3.17;;;;;;;-145.69;100.00;52658.28;5096439;28;20205;-80
2022/11/29 03:30:46;;;;;;;9.97;2.73;;;;;;;-145.69;100.00;52624.59;5096527;28;20182;-81
2022/11/29 03:33:20;;;;;;;7.93;2.57;;;;;;;-145.69;100.00;52650.34;5096031;28;20198;-80
2022/11/29 03:35:56;;;;;;;8.03;2.60;;;;;;;-145.69;100.00;52674.13;5096641;28;20202;-81
2022/11/29 03:38:29;;;;;;;4.30;1.77;;;;;;;-145.69;100.00;52624.59;5096508;28;20201;-81
2022/11/29 03:41:04;;;;;;;6.43;2.43;;;;;;;-145.69;100.00;52632.53;5095893;28;20209;-80
2022/11/29 03:43:40;;;;;;;7.40;2.27;;;;;;;-145.69;100.00;52632.53;5096377;28;20292;-81
2022/11/29 03:46:12;;;;;;;3.60;1.80;;;;;;;-145.69;100.00;52630.53;5093041;28;20281;-81
2022/11/29 03:48:43;;;;;;;6.10;2.10;;;;;;;-145.69;100.00;52628.56;5096342;28;20202;-81
2022/11/29 03:51:16;;;;;;;8.33;2.47;;;;;;;-145.69;100.00;52658.28;5096492;28;20564;-81
2022/11/29 03:53:50;;;;;;;10.50;2.97;;;;;;;-145.69;100.00;52646.41;5095674;28;20487;-81
2022/11/29 03:56:28;;;;;;;6.53;2.93;;;;;;;-145.69;100.00;52630.53;5096105;28;20197;-81
2022/11/29 03:59:04;;;;;;;11.93;2.40;;;;;;;-145.69;100.00;52638.47;5097765;28;20213;-81
2022/11/29 04:02:04;;;;;;;8.40;2.83;;;;;;;-145.69;100.00;52636.50;5100743;28;20284;-82
2022/11/29 04:05:00;;;;;;;10.53;2.77;;;;;;;-145.69;100.00;52634.50;5099963;28;20201;-82
2022/11/29 04:08:00;;;;;;;13.37;2.70;;;;;;;-145.69;100.00;52666.19;5101231;28;20717;-81
2022/11/29 04:10:52;;;;;;;13.90;2.80;;;;;;;-145.69;100.00;52636.50;5102075;28;20245;-82
2022/11/29 04:13:43;;;;;;;10.10;3.40;;;;;;;-145.69;100.00;52646.41;5101117;28;20202;-81
2022/11/29 04:16:34;;;;;;;11.20;2.97;;;;;;;-145.69;100.00;52636.50;5095664;28;20217;-80
2022/11/29 04:19:29;;;;;;;14.97;3.07;;;;;;;-145.69;100.00;52658.28;5099205;28;20229;-82
2022/11/29 04:22:15;;;;;;;19.47;4.03;;;;;;;-145.69;100.00;52678.09;5102324;28;20262;-83
2022/11/29 04:25:13;;;;;;;16.60;3.90;;;;;;;-145.69;100.00;52644.41;5097447;28;20208;-82
2022/11/29 04:27:52;;;;;;;16.40;5.18;;;;;;;-145.69;100.00;52648.38;5099319;28;20440;-82
2022/11/29 04:30:23;;;;;;;12.50;3.80;;;;;;;-145.69;100.00;52620.66;5089791;28;20225;-82
2022/11/29 04:33:19;;;;;;;9.77;3.57;;;;;;;-145.69;100.00;52644.41;5103230;28;20659;-81
2022/11/29 04:36:06;;;;;;;12.20;3.60;;;;;;;-145.69;100.00;52636.50;5083700;28;20199;-82
2022/11/29 04:38:53;;;;;;;17.33;4.67;;;;;;;-145.69;100.00;52642.44;5100827;28;20197;-83
2022/11/29 04:41:37;;;;;;;12.30;3.20;;;;;;;-145.69;100.00;52646.41;5103440;28;20584;-83
2022/11/29 04:44:31;;;;;;;9.33;3.37;;;;;;;-145.69;100.00;52660.25;5100919;28;20202;-83
2022/11/29 04:47:14;;;;;;;8.67;3.67;;;;;;;-145.69;100.00;52640.44;5101221;28;20564;-83
2022/11/29 04:49:56;;;;;;;18.63;4.03;;;;;;;-145.69;100.00;52636.50;5099192;28;20194;-83
2022/11/29 04:52:49;;;;;;;8.33;3.83;;;;;;;-145.69;100.00;52646.41;5102705;28;20632;-82
2022/11/29 04:55:27;;;;;;;17.73;3.57;;;;;;;-145.69;100.00;52634.50;5100905;28;20562;-82
2022/11/29 04:58:03;;;;;;;14.70;4.20;;;;;;;-145.69;100.00;52624.59;5100675;28;20194;-82
2022/11/29 05:00:37;;;;;;;19.17;3.53;;;;;;;-145.69;100.00;52646.41;5104127;28;20234;-82
2022/11/29 05:03:10;;;;;;;22.70;3.33;;;;;;;-145.69;100.00;52632.53;5104919;28;20236;-83
2022/11/29 05:05:43;;;;;;;15.73;3.43;;;;;;;-145.69;100.00;52634.50;5104079;28;20208;-83
2022/11/29 05:08:23;;;;;;;17.13;3.50;;;;;;;-145.69;100.00;52632.53;5103337;28;20194;-82
2022/11/29 05:10:56;;;;;;;15.70;3.30;;;;;;;-145.69;100.00;52624.59;5101985;28;20577;-82
2022/11/29 05:13:34;;;;;;;13.37;2.90;;;;;;;-145.69;100.00;52666.19;5099406;28;20568;-81
2022/11/29 05:16:12;;;;;;;20.67;3.30;;;;;;;-145.69;100.00;52658.28;5102312;28;20194;-82
2022/11/29 05:19:05;;;;;;;22.33;3.13;;;;;;;-145.69;100.00;52642.44;5102973;28;20673;-81
2022/11/29 05:21:46;;;;;;;14.27;2.77;;;;;;;-145.69;100.00;52622.63;5104566;28;20202;-82
2022/11/29 05:24:28;;;;;;;14.97;3.30;;;;;;;-145.69;100.00;52660.25;5104490;28;20222;-82
2022/11/29 05:27:01;;;;;;;17.57;3.93;;;;;;;-145.69;100.00;52650.34;5104714;28;20198;-82
2022/11/29 05:29:38;;;;;;;14.33;3.67;;;;;;;-145.69;100.00;52646.41;5104150;28;20202;-82
2022/11/29 05:32:22;;;;;;;16.77;4.67;;;;;;;-145.69;100.00;52674.13;5103703;28;20675;-82
2022/11/29 05:35:08;;;;;;;9.57;3.77;;;;;;;-145.69;100.00;52656.28;5104466;28;20716;-83
2022/11/29 05:37:44;;;;;;;13.37;4.20;;;;;;;-145.69;100.00;52662.22;5103892;28;20261;-82
2022/11/29 05:40:46;;;;;;;19.93;4.27;;;;;;;-145.69;100.00;52622.63;5104584;28;20626;-82
2022/11/29 05:43:28;;;;;;;14.90;4.10;;;;;;;-145.69;100.00;52626.59;5067601;28;20198;-82
2022/11/29 05:46:02;;;;;;;22.83;4.27;;;;;;;-145.69;100.00;52658.28;5096490;28;20198;-82
2022/11/29 05:48:43;;;;;;;15.67;3.80;;;;;;;-145.69;100.00;52638.47;5099761;28;20229;-83
2022/11/29 05:51:20;;;;;;;15.07;3.30;;;;;;;-145.69;100.00;52646.41;5098204;28;20580;-82
2022/11/29 05:53:57;;;;;;;19.57;3.20;;;;;;;-145.69;100.00;52624.59;5100618;28;20212;-82
2022/11/29 05:56:32;;;;;;;13.47;3.23;;;;;;;-145.69;100.00;52646.41;5079406;28;20293;-82
2022/11/29 05:59:06;;;;;;;11.40;2.80;;;;;;;-145.69;100.00;52662.22;5080445;28;20210;-82
2022/11/29 06:01:47;;;;;;;20.48;5.20;;;;;;;-145.69;100.00;52660.25;5078550;28;20442;-82
2022/11/29 06:04:20;;;;;;;15.67;4.83;;;;;;;-145.69;100.00;52658.28;5098823;28;20196;-82
2022/11/29 06:06:55;;;;;;;24.70;4.60;;;;;;;-145.69;100.00;52658.28;5100824;28;20208;-82
2022/11/29 06:09:27;;;;;;;15.20;4.03;;;;;;;-145.69;100.00;52638.47;5099940;28;20205;-83
2022/11/29 06:12:01;;;;;;;20.87;3.57;;;;;;;-145.69;100.00;52670.16;5098875;28;20206;-83
2022/11/29 06:15:02;;;;;;;13.63;4.87;;;;;;;-145.69;100.00;52644.41;5099741;28;20220;-82
2022/11/29 06:18:01;;;;;;;10.30;3.77;;;;;;;-145.69;100.00;52650.34;5100847;28;20198;-83
2022/11/29 06:20:43;;;;;;;7.87;3.03;;;;;;;-145.69;100.00;52678.09;5099438;28;20221;-83
2022/11/29 06:23:27;;;;;;;12.47;3.13;;;;;;;-145.69;100.00;52650.34;5100061;28;20200;-83
2022/11/29 06:26:09;;;;;;;17.73;4.17;;;;;;;-145.69;100.00;52682.03;5099637;28;20190;-83
2022/11/29 06:28:47;;;;;;;9.13;4.37;;;;;;;-145.69;100.00;52660.25;5101439;28;20711;-82
2022/11/29 06:31:17;;;;;;;14.57;4.47;;;;;;;-145.69;100.00;52658.28;5098423;28;20221;-82
2022/11/29 06:33:55;;;;;;;15.27;4.70;;;;;;;-145.69;100.00;52634.50;5100671;28;20696;-81
2022/11/29 06:36:31;;;;;;;14.70;3.30;;;;;;;-145.69;100.00;52674.13;5101685;28;20190;-83
2022/11/29 06:38:57;;;;;;;12.50;3.50;;;;;;;-145.69;100.00;52642.44;5100292;28;20198;-82
2022/11/29 06:41:25;;;;;;;12.63;3.97;;;;;;;-145.69;100.00;52650.34;5100364;28;20225;-82
2022/11/29 06:43:52;;;;;;;14.57;3.53;;;;;;;-145.69;100.00;52632.53;5101706;28;20205;-82
2022/11/29 06:46:30;;;;;;;12.53;3.60;;;;;;;-145.69;100.00;52636.50;5100575;28;20276;-82
2022/11/29 06:49:03;;;;;;;12.37;3.10;;;;;;;-145.69;100.00;52652.34;5099961;28;20663;-81
2022/11/29 06:51:36;;;;;;;11.60;3.30;;;;;;;-145.69;100.00;52656.28;5095609;28;20202;-81
2022/11/29 06:54:14;;;;;;;10.23;2.70;;;;;;;-145.69;100.00;52662.22;5096519;28;20205;-82
2022/11/29 06:56:46;;;;;;;18.27;3.60;;;;;;;-145.69;100.00;52622.63;5100353;28;20194;-82
2022/11/29 06:59:29;;;;;;;8.73;3.23;;;;;;;-145.69;100.00;52646.41;5100046;28;20535;-82
2022/11/29 07:02:03;;;;;;;10.27;3.10;;;;;;;-145.69;100.00;52650.34;5100765;28;20206;-82
2022/11/29 07:04:48;;;;;;;9.00;3.57;;;;;;;-145.69;100.00;52644.41;5099420;28;20220;-82
2022/11/29 07:07:19;;;;;;;17.27;4.00;;;;;;;-145.69;100.00;52622.63;5099657;28;20194;-82
2022/11/29 07:09:48;;;;;;;14.97;3.93;;;;;;;-145.69;100.00;52660.25;5099790;28;20212;-82
2022/11/29 07:12:15;;;;;;;12.73;3.53;;;;;;;-145.69;100.00;52666.19;5096340;28;20198;-82
2022/11/29 07:14:42;;;;;;;13.87;3.43;;;;;;;-145.69;100.00;52662.22;5097673;28;20217;-82
2022/11/29 07:17:18;;;;;;;12.00;3.60;;;;;;;-145.69;100.00;52658.28;5103180;28;20205;-82
2022/11/29 07:19:54;;;;;;;6.93;2.90;;;;;;;-145.69;100.00;52622.63;5094699;28;20233;-83
2022/11/29 07:22:37;;;;;;;20.43;6.20;;;;;;;-145.69;100.00;52658.28;5094145;28;20229;-81
2022/11/29 07:25:18;;;;;;;13.43;5.53;;;;;;;-145.69;100.00;52658.28;5092486;28;20201;-81
2022/11/29 07:27:52;;;;;;;11.00;3.83;;;;;;;-145.69;100.00;52618.66;5092343;28;20203;-81
2022/11/29 07:30:21;;;;;;;11.90;3.70;;;;;;;-145.69;100.00;52658.28;5092765;28;20198;-81
2022/11/29 07:32:58;;;;;;;13.97;3.33;;;;;;;-145.69;100.00;52674.13;5092912;28;20194;-82
2022/11/29 07:35:33;;;;;;;11.23;4.30;;;;;;;-145.69;100.00;52670.16;5092809;28;20573;-81
2022/11/29 07:38:09;;;;;;;20.90;5.93;;;;;;;-145.69;100.00;52648.38;5093320;28;20648;-82
2022/11/29 07:40:43;;;;;;;10.73;3.93;;;;;;;-145.69;100.00;52642.44;5093025;28;20225;-82
2022/11/29 07:43:33;;;;;;;12.77;3.43;;;;;;;-145.69;100.00;52634.50;5093721;28;20206;-82
2022/11/29 07:46:00;;;;;;;15.07;4.90;;;;;;;-145.69;100.00;52650.34;5093326;28;20201;-82
2022/11/29 07:48:26;;;;;;;17.67;3.77;;;;;;;-145.69;100.00;52674.13;5090057;28;20226;-82
2022/11/29 07:50:55;;;;;;;11.50;4.13;;;;;;;-145.69;100.00;52656.28;5076831;28;20294;-81
2022/11/29 07:53:23;;;;;;;18.90;4.27;;;;;;;-145.69;100.00;52640.44;5085464;28;20201;-82
2022/11/29 07:55:50;;;;;;;11.53;4.40;;;;;;;-145.69;100.00;52658.28;5096881;28;20580;-82
2022/11/29 07:58:19;;;;;;;16.97;5.17;;;;;;;-145.69;100.00;52630.53;5096805;28;20564;-82
2022/11/29 08:00:46;;;;;;;18.20;5.67;;;;;;;-145.69;100.00;52662.22;5096935;28;20230;-81
2022/11/29 08:03:13;;;;;;;22.83;7.03;;;;;;;-145.69;100.00;52668.19;5097026;28;20202;-81
2022/11/29 08:05:40;;;;;;;17.53;5.93;;;;;;;-145.69;100.00;52650.34;5096925;28;20202;-82
2022/11/29 08:08:08;;;;;;;14.00;5.90;;;;;;;-145.69;100.00;52642.44;5097515;28;20206;-81
2022/11/29 08:10:35;;;;;;;16.67;5.27;;;;;;;-145.69;100.00;52678.09;5097558;28;20201;-82
2022/11/29 08:13:01;;;;;;;15.03;4.63;;;;;;;-145.69;100.00;52634.50;5097316;28;20208;-82
2022/11/29 08:15:28;;;;;;;19.63;4.50;;;;;;;-145.69;100.00;52634.50;5096700;28;20198;-82
2022/11/29 08:17:54;;;;;;;14.13;4.90;;;;;;;-145.69;100.00;52646.41;5096572;28;20194;-81
2022/11/29 08:20:21;;;;;;;12.97;4.47;;;;;;;-145.69;100.00;52666.19;5096479;28;20689;-82
2022/11/29 08:22:54;;;;;;;12.97;4.00;;;;;;;-145.69;100.00;52666.19;5096343;28;20656;-82
2022/11/29 08:25:22;;;;;;;15.07;4.87;;;;;;;-145.69;100.00;52658.28;5089001;28;20339;-81
2022/11/29 08:27:50;;;;;;;13.07;4.43;;;;;;;-145.69;100.00;52682.03;5096589;28;20244;-81
2022/11/29 08:30:21;;;;;;;12.40;5.23;;;;;;;-145.69;100.00;52642.44;5096193;28;20296;-80
2022/11/29 08:32:48;;;;;;;18.13;5.63;;;;;;;-145.69;100.00;52638.47;5096214;28;20202;-81
2022/11/29 08:35:14;;;;;;;15.20;4.10;;;;;;;-145.69;100.00;52678.09;5095903;28;20627;-79
2022/11/29 08:37:41;;;;;;;16.40;4.13;;;;;;;-145.69;100.00;52652.34;5095010;28;20655;-82
2022/11/29 08:40:08;;;;;;;15.77;4.53;;;;;;;-145.69;100.00;52658.28;5082304;28;20230;-81
2022/11/29 08:42:36;;;;;;;11.43;4.40;;;;;;;-145.69;100.00;52646.41;5092965;28;20684;-81
2022/11/29 08:45:03;;;;;;;21.13;5.03;;;;;;;-145.69;100.00;52634.50;5095427;28;20202;-80
2022/11/29 08:47:35;;;;;;;9.60;4.53;;;;;;;-145.69;100.00;52642.44;5088340;28;20222;-80
2022/11/29 08:50:02;;;;;;;16.27;4.77;;;;;;;-145.69;100.00;52697.88;5074985;28;20198;-80
2022/11/29 08:55:13;;;;;;;7.37;4.10;;;;;;;-145.69;100.00;52644.41;5087054;28;20293;-81
2022/11/29 08:57:40;;;;;;;17.67;3.97;;;;;;;-145.69;100.00;52668.19;5094568;28;20193;-80
2022/11/29 09:00:09;;;;;;;10.07;4.05;;;;;;;-145.69;100.00;52670.16;5094072;28;20460;-81
2022/11/29 09:02:36;;;;;;;12.43;3.80;;;;;;;-145.69;100.00;52646.41;5094794;28;20202;-81
2022/11/29 09:05:03;;;;;;;8.27;2.93;;;;;;;-145.69;100.00;52650.34;5094858;28;20660;-81
2022/11/29 09:07:29;;;;;;;10.87;3.47;;;;;;;-145.69;100.00;52642.44;5095311;28;20208;-82
2022/11/29 09:09:56;;;;;;;13.37;4.13;;;;;;;-145.69;100.00;52628.56;5094376;28;20273;-80
2022/11/29 09:12:22;;;;;;;8.50;3.73;;;;;;;-145.69;100.00;52602.81;5095109;28;20213;-81
2022/11/29 09:14:50;;;;;;;12.70;3.80;;;;;;;-145.69;100.00;52644.41;5095143;28;20205;-81
2022/11/29 09:17:17;;;;;;;12.13;4.37;;;;;;;-145.69;100.00;52646.41;5095640;28;20656;-81
2022/11/29 09:19:43;;;;;;;14.03;3.90;;;;;;;-145.69;100.00;52642.44;5095005;28;20198;-81
2022/11/29 09:22:10;;;;;;;8.93;3.93;;;;;;;-145.69;100.00;52668.19;5094926;28;20229;-81
2022/11/29 09:24:36;;;;;;;9.87;3.90;;;;;;;-145.69;100.00;52642.44;5094532;28;20190;-80
2022/11/29 09:27:03;;;;;;;12.73;3.90;;;;;;;-145.69;100.00;52650.34;5094441;28;20195;-80
2022/11/29 09:29:29;;;;;;;7.93;3.30;;;;;;;-145.69;100.00;52638.47;5094543;28;20198;-79
2022/11/29 09:31:57;;;;;;;11.20;3.53;;;;;;;-145.69;100.00;52662.22;5094591;28;20206;-80
2022/11/29 09:34:24;;;;;;;11.47;3.77;;;;;;;-145.69;100.00;52626.59;5093743;28;20249;-80
2022/11/29 09:36:50;;;;;;;9.97;3.77;;;;;;;-145.69;100.00;52630.53;5094160;28;20221;-81
2022/11/29 09:39:17;;;;;;;10.87;3.57;;;;;;;-145.69;100.00;52618.66;5094019;28;20202;-80
2022/11/29 09:42:09;;;;;;;9.68;3.58;;;;;;;-145.69;100.00;52642.44;5093681;28;20456;-80
2022/11/29 09:44:49;;;;;;;7.23;4.27;;;;;;;-145.69;100.00;52626.59;5093835;28;20207;-80
2022/11/29 09:47:41;;;;;;;6.37;3.20;;;;;;;-145.69;100.00;52650.34;5093562;28;20198;-80
2022/11/29 09:50:21;;;;;;;7.43;3.57;;;;;;;-145.69;100.00;52638.47;5093399;28;20293;-80
2022/11/29 09:52:54;;;;;;;9.20;2.80;;;;;;;-145.69;100.00;52654.31;5093780;28;20198;-80
2022/11/29 09:55:38;;;;;;;11.47;3.60;;;;;;;-145.69;100.00;52662.22;5092998;28;20686;-80
2022/11/29 09:58:10;;;;;;;8.13;3.23;;;;;;;-145.69;100.00;52608.75;5093732;28;20198;-80
2022/11/29 10:00:45;;;;;;;17.03;7.53;;;;;;;-145.69;100.00;52626.59;5093983;28;20226;-80
2022/11/29 10:03:22;;;;;;;7.07;2.90;;;;;;;-145.69;100.00;52654.31;5093962;28;20205;-80
2022/11/29 10:05:55;;;;;;;7.00;3.40;;;;;;;-145.69;100.00;52634.50;5094508;28;20613;-80
2022/11/29 10:08:27;;;;;;;12.87;3.53;;;;;;;-145.69;100.00;52646.41;5094005;28;20861;-80
2022/11/29 10:11:01;;;;;;;8.63;3.10;;;;;;;-145.69;100.00;52658.28;5094245;28;20584;-81
2022/11/29 10:13:33;;;;;;;4.63;3.03;;;;;;;-145.69;100.00;52640.44;5093645;28;20204;-80
2022/11/29 10:16:07;;;;;;;4.47;2.80;;;;;;;-145.69;100.00;52634.50;5093233;28;20206;-80
2022/11/29 10:18:37;;;;;;;7.53;2.83;;;;;;;-145.69;100.00;52654.31;5093203;28;20202;-80
2022/11/29 10:21:14;;;;;;;4.77;2.53;;;;;;;-145.69;100.00;52626.59;5093120;28;20226;-81
2022/11/29 10:23:46;;;;;;;9.63;3.00;;;;;;;-145.69;100.00;52654.31;5092327;28;20623;-80
2022/11/29 10:26:13;;;;;;;7.37;2.90;;;;;;;-145.69;100.00;52638.47;5092446;28;20198;-80
2022/11/29 10:28:44;;;;;;;5.07;2.80;;;;;;;-145.69;100.00;52658.28;5092843;28;20198;-80
2022/11/29 10:31:19;;;;;;;5.93;2.80;;;;;;;-145.69;100.00;52658.28;5093187;28;20202;-80
2022/11/29 10:33:48;;;;;;;6.17;2.67;;;;;;;-145.69;100.00;52630.53;5092995;28;20275;-80
2022/11/29 10:36:21;;;;;;;6.77;3.20;;;;;;;-145.69;100.00;52644.41;5093337;28;20202;-80
2022/11/29 10:38:49;;;;;;;4.03;2.63;;;;;;;-145.69;100.00;52638.47;5092888;28;20289;-80
2022/11/29 10:41:20;;;;;;;4.80;2.87;;;;;;;-145.69;100.00;52642.44;5092741;28;20230;-79
2022/11/29 10:43:47;;;;;;;6.70;3.07;;;;;;;-145.69;100.00;52626.59;5092837;28;20205;-80
2022/11/29 10:46:22;;;;;;;5.80;3.33;;;;;;;-145.69;100.00;52636.50;5093153;28;20261;-80
2022/11/29 10:48:50;;;;;;;6.33;3.17;;;;;;;-145.69;100.00;52632.53;5091065;28;20671;-80
2022/11/29 10:51:17;;;;;;;9.00;3.37;;;;;;;-145.69;100.00;52678.09;5092535;28;20195;-80
2022/11/29 10:53:44;;;;;;;6.40;3.43;;;;;;;-145.69;100.00;52620.66;5093020;28;20198;-80
2022/11/29 10:56:18;;;;;;;5.93;2.90;;;;;;;-145.69;100.00;52670.16;5092555;28;20202;-79
2022/11/29 10:58:55;;;;;;;5.73;2.60;;;;;;;-145.69;100.00;52640.44;5092509;28;20212;-80
2022/11/29 11:01:23;;;;;;;5.10;2.43;;;;;;;-145.69;100.00;52650.34;5092640;28;20249;-80
2022/11/29 11:03:52;;;;;;;3.80;2.47;;;;;;;-145.69;100.00;52636.50;5092788;28;20565;-80
2022/11/29 11:06:21;;;;;;;6.33;2.37;;;;;;;-145.69;100.00;52695.91;5092637;28;20198;-80
2022/11/29 11:08:51;;;;;;;6.13;2.10;;;;;;;-145.69;100.00;52640.44;5092398;28;20912;-80
2022/11/29 11:11:25;;;;;;;5.93;2.43;;;;;;;-145.69;100.00;52616.69;5092968;28;20217;-80
2022/11/29 11:13:58;;;;;;;3.67;2.30;;;;;;;-145.69;100.00;52666.19;5092738;28;20198;-81
2022/11/29 11:16:26;;;;;;;3.63;2.60;;;;;;;-145.69;100.00;52654.31;5092468;28;20186;-80
2022/11/29 11:18:55;;;;;;;4.90;2.57;;;;;;;-145.69;100.00;52638.47;5092813;28;20252;-81
2022/11/29 11:21:25;;;;;;;5.07;3.03;;;;;;;-145.69;100.00;52652.34;5091996;28;20222;-80
2022/11/29 11:23:55;;;;;;;3.67;2.57;;;;;;;-145.69;100.00;52658.28;5093225;28;20214;-80
2022/11/29 11:26:23;;;;;;;3.47;2.17;;;;;;;-145.69;100.00;52646.41;5096953;28;20201;-81
2022/11/29 11:28:53;;;;;;;3.40;2.53;;;;;;;-145.69;100.00;52642.44;5096498;28;20194;-80
2022/11/29 11:31:28;;;;;;;4.70;2.30;;;;;;;-145.69;100.00;52658.28;5096408;28;20210;-80
2022/11/29 11:33:56;;;;;;;5.00;2.40;;;;;;;-145.69;100.00;52646.41;5095407;28;20222;-80
2022/11/29 11:36:24;;;;;;;3.77;2.27;;;;;;;-145.69;100.00;52654.31;5096401;28;20206;-80
2022/11/29 11:38:53;;;;;;;5.07;2.40;;;;;;;-145.69;100.00;52644.41;5096509;28;20198;-80
2022/11/29 11:42:35;;;;;;;4.43;2.60;;;;;;;-145.69;100.00;52628.56;5096192;28;20568;-80